createdAt,value
2022-10-03T00:05:42.244Z,10.70
2022-10-03T00:12:38.052Z,10.90
2022-10-03T00:19:04.429Z,10.90
2022-10-03T00:33:23.773Z,11.00
2022-10-03T00:39:53.704Z,10.90
2022-10-03T00:46:40.349Z,10.90
2022-10-03T00:53:07.049Z,10.70
2022-10-03T00:59:31.773Z,10.70
2022-10-03T01:05:39.171Z,10.50
2022-10-03T01:11:55.852Z,10.60
2022-10-03T01:18:31.960Z,10.80
2022-10-03T01:24:53.620Z,10.80
2022-10-03T01:31:04.802Z,10.80
2022-10-03T01:37:23.732Z,10.90
2022-10-03T01:43:38.166Z,10.90
2022-10-03T01:49:51.432Z,11.00
2022-10-03T01:56:17.535Z,11.00
2022-10-03T02:02:35.208Z,11.10
2022-10-03T02:09:20.214Z,11.10
2022-10-03T02:16:08.250Z,11.10
2022-10-03T02:22:46.029Z,11.20
2022-10-03T02:28:59.647Z,11.20
2022-10-03T02:35:28.484Z,11.20
2022-10-03T02:42:25.848Z,11.20
2022-10-03T02:48:40.482Z,11.30
2022-10-03T02:55:35.862Z,11.20
2022-10-03T03:02:48.328Z,11.20
2022-10-03T03:09:33.505Z,11.10
2022-10-03T03:16:18.967Z,11.00
2022-10-03T03:22:57.869Z,10.90
2022-10-03T03:29:21.329Z,10.90
2022-10-03T03:36:26.386Z,10.90
2022-10-03T03:42:41.875Z,10.90
2022-10-03T03:49:34.961Z,10.80
2022-10-03T03:55:48.729Z,10.90
2022-10-03T04:02:27.006Z,11.00
2022-10-03T04:08:50.462Z,11.00
2022-10-03T04:15:23.427Z,11.00
2022-10-03T04:21:56.484Z,11.00
2022-10-03T04:28:34.412Z,11.00
2022-10-03T04:34:58.011Z,11.00
2022-10-03T04:41:21.680Z,11.10
2022-10-03T04:47:43.783Z,11.00
2022-10-03T04:53:51.667Z,11.10
2022-10-03T05:00:27.420Z,10.90
2022-10-03T05:07:10.264Z,10.80
2022-10-03T05:13:22.611Z,10.70
2022-10-03T05:19:49.245Z,10.70
2022-10-03T05:26:45.070Z,10.70
2022-10-03T05:32:58.992Z,10.60
2022-10-03T05:39:33.665Z,10.60
2022-10-03T05:45:48.956Z,10.60
2022-10-03T05:52:39.211Z,10.70
2022-10-03T05:59:13.939Z,10.70
2022-10-03T06:06:00.230Z,10.80
2022-10-03T06:12:32.007Z,10.80
2022-10-03T06:19:21.740Z,10.80
2022-10-03T06:25:26.528Z,11.00
2022-10-03T06:32:05.660Z,11.00
2022-10-03T06:38:53.042Z,11.20
2022-10-03T06:44:55.788Z,11.10
2022-10-03T06:51:40.703Z,11.20
2022-10-03T06:58:07.364Z,11.40
2022-10-03T07:04:46.041Z,11.30
2022-10-03T07:10:54.026Z,11.50
2022-10-03T07:17:24.881Z,11.70
2022-10-03T07:24:16.140Z,11.80
2022-10-03T07:30:50.714Z,11.90
2022-10-03T07:37:48.771Z,12.00
2022-10-03T07:44:24.167Z,12.20
2022-10-03T07:50:55.715Z,12.40
2022-10-03T07:57:29.665Z,12.50
2022-10-03T08:04:20.254Z,12.70
2022-10-03T08:11:20.453Z,13.00
2022-10-03T08:18:02.309Z,13.00
2022-10-03T08:24:44.821Z,13.20
2022-10-03T08:31:34.953Z,13.40
2022-10-03T08:44:53.056Z,13.30
2022-10-03T08:51:12.420Z,13.30
2022-10-03T08:57:52.847Z,13.50
2022-10-03T09:04:51.427Z,13.50
2022-10-03T09:11:18.860Z,13.40
2022-10-03T09:17:57.161Z,13.50
2022-10-03T09:24:49.497Z,14.10
2022-10-03T09:31:09.858Z,14.90
2022-10-03T09:37:57.426Z,15.10
2022-10-03T09:44:56.061Z,15.40
2022-10-03T09:51:33.491Z,14.80
2022-10-03T09:58:03.001Z,14.70
2022-10-03T10:04:54.143Z,14.70
2022-10-03T10:11:24.976Z,14.80
2022-10-03T10:18:08.683Z,14.80
2022-10-03T10:32:09.827Z,14.30
2022-10-03T10:38:26.545Z,14.20
2022-10-03T10:45:14.804Z,14.20
2022-10-03T10:52:00.491Z,14.40
2022-10-03T10:58:58.182Z,14.60
2022-10-03T11:05:25.163Z,14.70
2022-10-03T11:12:04.992Z,14.90
2022-10-03T11:18:45.257Z,14.90
2022-10-03T11:25:35.469Z,15.20
2022-10-03T11:32:18.626Z,17.00
2022-10-03T11:38:41.061Z,18.00
2022-10-03T11:45:43.339Z,16.70
2022-10-03T11:59:43.204Z,15.40
2022-10-03T12:06:33.249Z,15.00
2022-10-03T12:12:52.138Z,14.90
2022-10-03T12:19:23.992Z,15.30
2022-10-03T12:25:34.832Z,15.80
2022-10-03T12:32:05.814Z,16.10
2022-10-03T12:38:52.142Z,17.10
2022-10-03T12:45:27.209Z,18.90
2022-10-03T12:52:09.860Z,18.00
2022-10-03T12:59:13.247Z,17.30
2022-10-03T13:05:37.843Z,19.70
2022-10-03T13:12:08.764Z,20.30
2022-10-03T13:18:32.059Z,21.70
2022-10-03T13:25:01.074Z,19.60
2022-10-03T13:31:28.666Z,18.80
2022-10-03T13:37:57.295Z,20.20
2022-10-03T13:44:04.341Z,19.90
2022-10-03T13:50:16.601Z,19.20
2022-10-03T13:56:45.703Z,20.20
2022-10-03T14:02:59.907Z,20.50
2022-10-03T14:09:19.520Z,19.10
2022-10-03T14:15:39.348Z,17.90
2022-10-03T14:29:46.979Z,16.90
2022-10-03T14:36:29.476Z,16.60
2022-10-03T14:43:01.556Z,16.60
2022-10-03T14:49:17.151Z,16.70
2022-10-03T14:55:59.787Z,16.60
2022-10-03T15:02:35.802Z,16.50
2022-10-03T15:08:54.872Z,16.40
2022-10-03T15:15:31.323Z,16.40
2022-10-03T15:21:34.176Z,17.40
2022-10-03T15:27:42.041Z,18.60
2022-10-03T15:33:45.876Z,18.70
2022-10-03T15:39:48.784Z,18.30
2022-10-03T15:45:51.239Z,17.70
2022-10-03T15:52:01.283Z,18.00
2022-10-03T15:58:23.754Z,18.30
2022-10-03T16:04:34.753Z,18.00
2022-10-03T16:10:49.218Z,17.40
2022-10-03T16:24:01.192Z,15.70
2022-10-03T16:30:27.261Z,15.00
2022-10-03T16:42:49.076Z,14.40
2022-10-03T16:49:14.336Z,14.20
2022-10-03T16:55:59.873Z,14.00
2022-10-03T17:02:12.889Z,13.80
2022-10-03T17:08:40.549Z,13.60
2022-10-03T17:14:44.613Z,13.20
2022-10-03T17:21:11.126Z,12.90
2022-10-03T17:27:37.471Z,12.60
2022-10-03T17:34:11.749Z,12.40
2022-10-03T17:40:32.189Z,12.40
2022-10-03T17:46:40.254Z,12.20
2022-10-03T17:52:47.647Z,12.00
2022-10-03T17:58:58.774Z,11.90
2022-10-03T18:05:18.466Z,11.80
2022-10-03T18:11:33.569Z,11.90
2022-10-03T18:18:07.895Z,12.10
2022-10-03T18:24:54.111Z,12.10
2022-10-03T18:31:05.350Z,12.10
2022-10-03T18:37:29.100Z,11.90
2022-10-03T18:43:45.184Z,11.70
2022-10-03T18:50:43.706Z,11.60
2022-10-03T18:57:06.843Z,11.60
2022-10-03T19:03:16.187Z,11.50
2022-10-03T19:09:35.291Z,11.40
2022-10-03T19:15:56.796Z,11.30
2022-10-03T19:22:06.734Z,11.50
2022-10-03T19:28:37.835Z,11.30
2022-10-03T19:34:43.911Z,11.10
2022-10-03T19:40:55.546Z,11.00
2022-10-03T19:47:41.422Z,10.90
2022-10-03T20:00:17.431Z,10.70
2022-10-03T20:06:28.548Z,10.70
2022-10-03T20:12:31.446Z,10.70
2022-10-03T20:18:53.814Z,10.70
2022-10-03T20:24:56.461Z,10.70
2022-10-03T20:30:58.536Z,10.70
2022-10-03T20:37:39.936Z,10.60
2022-10-03T20:43:53.100Z,10.70
2022-10-03T20:50:42.900Z,10.70
2022-10-03T20:57:25.135Z,10.70
2022-10-03T21:03:45.313Z,10.70
2022-10-03T21:10:17.775Z,10.70
2022-10-03T21:16:34.127Z,10.50
2022-10-03T21:22:37.011Z,10.40
2022-10-03T21:28:39.288Z,10.20
2022-10-03T21:35:05.931Z,10.10
2022-10-03T21:41:22.795Z,10.00
2022-10-03T21:48:00.933Z,9.90
2022-10-03T21:54:36.609Z,9.80
2022-10-03T22:01:20.947Z,9.80
2022-10-03T22:07:44.297Z,9.70
2022-10-03T22:14:16.788Z,9.70
2022-10-03T22:20:29.624Z,9.60
2022-10-03T22:27:04.259Z,9.60
2022-10-03T22:33:47.384Z,9.50
2022-10-03T22:39:50.001Z,9.60
2022-10-03T22:45:58.348Z,9.50
2022-10-03T22:52:03.760Z,9.40
2022-10-03T22:58:08.531Z,9.40
2022-10-03T23:04:18.871Z,9.20
2022-10-03T23:10:35.572Z,9.20
2022-10-03T23:17:12.575Z,9.20
2022-10-03T23:23:23.993Z,9.20
2022-10-03T23:29:26.070Z,9.20
2022-10-03T23:35:30.887Z,9.10
2022-10-03T23:41:44.596Z,9.20
2022-10-03T23:48:13.601Z,9.10
2022-10-03T23:54:16.323Z,9.10
